Time;durP1;ratioP1;P1;durP2;ratioP2;P2;SDS_P1;SDS_P2;PMS_P1;PMS_P2;Temp;Humidity;BMP_temperature;BMP_pressure;BME280_temperature;BME280_humidity;BME280_pressure;Samples;Min_cycle;Max_cycle;Signal;HPM_P1;HPM_P2
2022/01/06 00:01:04;;;;;;;77.13;40.60;;;;;;;5.05;99.23;93888.50;5071406;28;20245;-73
2022/01/06 00:03:33;;;;;;;89.10;42.03;;;;;;;4.96;98.46;93900.78;5071375;28;20199;-74
2022/01/06 00:06:06;;;;;;;70.93;34.40;;;;;;;4.78;100.00;93886.97;5071149;28;20541;-75
2022/01/06 00:08:35;;;;;;;68.57;35.20;;;;;;;4.82;100.00;93906.19;5070933;28;20207;-74
2022/01/06 00:11:05;;;;;;;62.93;32.13;;;;;;;4.69;100.00;93895.88;5070928;28;20201;-74
2022/01/06 00:13:44;;;;;;;72.53;35.63;;;;;;;4.66;100.00;93901.44;5070893;28;20241;-75
2022/01/06 00:16:23;;;;;;;62.77;34.23;;;;;;;4.64;100.00;93900.84;5077601;28;20202;-75
2022/01/06 00:24:24;;;;;;;66.97;33.43;;;;;;;4.80;100.00;93908.94;5070582;28;20226;-76
2022/01/06 00:26:53;;;;;;;56.90;31.27;;;;;;;4.86;100.00;93892.69;5070483;28;20206;-74
2022/01/06 00:29:21;;;;;;;64.70;33.57;;;;;;;4.82;100.00;93893.31;5070623;28;20259;-73
2022/01/06 00:31:50;;;;;;;66.00;33.97;;;;;;;4.78;99.74;93894.69;5070673;28;20291;-74
2022/01/06 00:34:18;;;;;;;57.80;29.67;;;;;;;4.71;100.00;93891.31;5070329;28;20255;-75
2022/01/06 00:36:46;;;;;;;64.63;31.63;;;;;;;4.70;100.00;93897.47;5063678;28;20217;-75
2022/01/06 00:39:16;;;;;;;51.37;27.40;;;;;;;4.53;100.00;93890.16;5070099;28;20560;-73
2022/01/06 00:41:45;;;;;;;57.70;29.27;;;;;;;4.52;100.00;93909.19;5063655;28;20201;-73
2022/01/06 00:44:14;;;;;;;47.97;26.90;;;;;;;4.55;100.00;93902.84;5070768;28;20203;-74
2022/01/06 00:46:42;;;;;;;60.73;29.23;;;;;;;4.60;100.00;93910.75;5071707;28;20207;-74
2022/01/06 00:49:14;;;;;;;56.37;29.20;;;;;;;4.62;100.00;93923.44;5069651;28;20206;-76
2022/01/06 00:51:42;;;;;;;60.07;28.97;;;;;;;4.63;100.00;93922.41;5069901;28;20211;-74
2022/01/06 00:54:10;;;;;;;55.20;28.47;;;;;;;4.65;100.00;93925.59;5070947;28;20201;-74
2022/01/06 00:56:39;;;;;;;55.87;27.77;;;;;;;4.62;99.22;93913.91;5070530;28;20201;-74
2022/01/06 00:59:07;;;;;;;58.07;28.67;;;;;;;4.65;99.86;93917.88;5069467;28;20201;-74
2022/01/06 01:01:35;;;;;;;50.13;27.23;;;;;;;4.62;99.58;93926.75;5070149;28;20249;-74
2022/01/06 01:04:03;;;;;;;53.73;29.20;;;;;;;4.46;100.00;93924.63;5070172;28;20766;-76
2022/01/06 01:06:34;;;;;;;65.63;32.87;;;;;;;4.42;100.00;93924.22;5070523;28;20575;-77
2022/01/06 01:09:03;;;;;;;72.60;33.67;;;;;;;4.45;100.00;93926.38;5070033;28;20194;-74
2022/01/06 01:11:31;;;;;;;65.90;32.77;;;;;;;4.42;100.00;93937.06;5069898;28;20218;-75
2022/01/06 01:14:16;;;;;;;67.43;34.83;;;;;;;4.39;100.00;93934.09;5069704;28;20749;-74
2022/01/06 01:16:53;;;;;;;69.43;35.57;;;;;;;4.42;100.00;93936.28;5076153;28;20197;-74
2022/01/06 01:19:21;;;;;;;77.60;37.93;;;;;;;4.40;100.00;93936.50;5070783;28;20197;-75
2022/01/06 01:21:52;;;;;;;75.83;39.97;;;;;;;4.42;100.00;93934.50;5069315;28;20209;-75
2022/01/06 01:24:20;;;;;;;80.30;39.00;;;;;;;4.41;100.00;93914.13;5063377;28;20231;-75
2022/01/06 01:26:50;;;;;;;77.13;39.20;;;;;;;4.48;100.00;93936.28;5062856;28;20232;-75
2022/01/06 01:29:19;;;;;;;76.10;37.47;;;;;;;4.52;100.00;93929.75;5069712;28;20291;-74
2022/01/06 01:31:50;;;;;;;70.67;37.30;;;;;;;4.53;100.00;93935.72;5070197;28;20734;-75
2022/01/06 01:34:22;;;;;;;75.40;37.50;;;;;;;4.50;100.00;93928.38;5070059;28;20900;-75
2022/01/06 01:36:53;;;;;;;68.17;35.07;;;;;;;4.48;100.00;93923.41;5069523;28;20237;-76
2022/01/06 01:39:21;;;;;;;65.53;34.40;;;;;;;4.50;100.00;93921.44;5069739;28;20662;-76
2022/01/06 01:41:49;;;;;;;63.57;32.73;;;;;;;4.44;100.00;93919.66;5070487;28;20581;-76
2022/01/06 01:44:20;;;;;;;66.90;33.93;;;;;;;4.41;100.00;93909.78;5070070;28;20208;-76
2022/01/06 01:46:59;;;;;;;61.83;32.47;;;;;;;4.37;100.00;93918.09;5071951;28;20236;-76
2022/01/06 01:49:32;;;;;;;61.30;30.87;;;;;;;4.31;100.00;93903.44;5069397;28;20205;-76
2022/01/06 01:52:03;;;;;;;59.87;31.17;;;;;;;4.38;100.00;93906.81;5069094;28;20193;-76
2022/01/06 01:54:30;;;;;;;60.80;32.97;;;;;;;4.36;100.00;93898.47;5070068;28;20233;-77
2022/01/06 01:56:58;;;;;;;71.40;34.17;;;;;;;4.36;100.00;93901.06;5070078;28;20216;-77
2022/01/06 01:59:27;;;;;;;62.80;32.97;;;;;;;4.25;100.00;93894.75;5069295;28;20201;-75
2022/01/06 02:01:55;;;;;;;74.20;35.93;;;;;;;4.14;100.00;93876.53;5068987;28;20201;-76
2022/01/06 02:04:24;;;;;;;72.43;35.83;;;;;;;4.17;100.00;93896.72;5068557;28;20205;-76
2022/01/06 02:06:52;;;;;;;70.60;34.93;;;;;;;4.18;100.00;93909.38;5069888;28;20251;-75
2022/01/06 02:09:23;;;;;;;74.70;36.10;;;;;;;4.13;100.00;93904.03;5069719;28;20258;-75
2022/01/06 02:11:51;;;;;;;68.17;34.47;;;;;;;4.14;100.00;93918.47;5069508;28;20205;-75
2022/01/06 02:14:18;;;;;;;65.80;32.80;;;;;;;4.00;100.00;93902.25;5069791;28;20201;-75
2022/01/06 02:16:46;;;;;;;66.43;34.33;;;;;;;4.02;100.00;93914.91;5074922;28;20245;-75
2022/01/06 02:19:15;;;;;;;65.80;33.67;;;;;;;3.99;100.00;93915.28;5070439;28;20201;-75
2022/01/06 02:21:45;;;;;;;59.57;31.87;;;;;;;3.87;100.00;93909.13;5069546;28;20236;-75
2022/01/06 02:24:14;;;;;;;67.33;33.30;;;;;;;3.80;100.00;93908.34;5069756;28;20219;-75
2022/01/06 02:26:42;;;;;;;63.20;32.43;;;;;;;3.81;100.00;93920.22;5069461;28;20668;-76
2022/01/06 02:29:10;;;;;;;59.83;30.13;;;;;;;3.83;100.00;93921.59;5063276;28;20197;-76
2022/01/06 02:31:46;;;;;;;63.57;32.93;;;;;;;3.84;100.00;93915.47;5062625;28;20302;-76
2022/01/06 02:34:14;;;;;;;74.33;35.03;;;;;;;3.92;100.00;93928.16;5069389;28;20298;-76
2022/01/06 02:36:48;;;;;;;50.77;26.87;;;;;;;3.75;100.00;93936.41;5069322;28;20208;-76
2022/01/06 02:39:15;;;;;;;52.67;27.47;;;;;;;3.69;100.00;93945.69;5069365;28;20197;-76
2022/01/06 02:41:44;;;;;;;49.20;23.87;;;;;;;3.56;100.00;93929.41;5069668;28;20205;-76
2022/01/06 02:44:13;;;;;;;55.70;26.77;;;;;;;3.60;100.00;93931.44;5062875;28;20203;-76
2022/01/06 02:46:42;;;;;;;47.87;26.50;;;;;;;3.60;100.00;93940.91;5071029;28;20224;-76
2022/01/06 02:49:13;;;;;;;56.53;29.13;;;;;;;3.65;100.00;93928.25;5069202;28;20205;-76
2022/01/06 02:51:41;;;;;;;68.43;31.17;;;;;;;3.62;100.00;93932.00;5068979;28;20205;-76
2022/01/06 02:54:10;;;;;;;58.80;29.87;;;;;;;3.66;100.00;93922.94;5069790;28;20598;-75
2022/01/06 02:56:41;;;;;;;58.97;30.37;;;;;;;3.67;100.00;93928.84;5066666;28;20368;-75
2022/01/06 02:59:09;;;;;;;69.77;31.23;;;;;;;3.63;100.00;93925.91;5068686;28;20206;-75
2022/01/06 03:01:40;;;;;;;62.13;30.57;;;;;;;3.61;100.00;93911.69;5068729;28;20205;-75
2022/01/06 03:04:09;;;;;;;57.30;30.27;;;;;;;3.59;100.00;93919.56;5068451;28;20311;-75
2022/01/06 03:06:37;;;;;;;61.87;32.17;;;;;;;3.60;100.00;93926.28;5068823;28;20286;-75
2022/01/06 03:09:05;;;;;;;59.60;30.50;;;;;;;3.64;100.00;93924.09;5067844;28;20229;-75
2022/01/06 03:11:41;;;;;;;77.10;38.40;;;;;;;3.60;100.00;93917.78;5068746;28;20267;-75
2022/01/06 03:14:09;;;;;;;82.27;38.27;;;;;;;3.65;100.00;93925.69;5071797;28;20300;-74
2022/01/06 03:16:37;;;;;;;76.93;38.90;;;;;;;3.67;100.00;93926.28;5077199;28;20241;-76
2022/01/06 03:19:06;;;;;;;73.23;36.47;;;;;;;3.66;100.00;93925.50;5071743;28;20208;-74
2022/01/06 03:21:34;;;;;;;71.90;36.67;;;;;;;3.58;100.00;93935.19;5071553;28;20202;-74
2022/01/06 03:24:04;;;;;;;72.17;36.53;;;;;;;3.58;100.00;93940.31;5071105;28;20208;-74
2022/01/06 03:26:33;;;;;;;72.17;34.27;;;;;;;3.65;100.00;93931.63;5070381;28;20707;-74
2022/01/06 03:29:02;;;;;;;73.20;36.63;;;;;;;3.64;100.00;93929.25;5072147;28;20278;-74
2022/01/06 03:31:32;;;;;;;73.27;37.50;;;;;;;3.68;100.00;93922.75;5071905;28;20298;-73
2022/01/06 03:34:01;;;;;;;75.90;37.40;;;;;;;3.67;100.00;93916.00;5071125;28;20232;-74
2022/01/06 03:36:31;;;;;;;70.23;36.47;;;;;;;3.65;100.00;93933.41;5071991;28;20216;-75
2022/01/06 03:38:59;;;;;;;55.37;29.73;;;;;;;3.52;100.00;93926.44;5071972;28;20589;-74
2022/01/06 03:41:28;;;;;;;60.10;30.00;;;;;;;3.51;100.00;93917.16;5072489;28;20296;-73
2022/01/06 03:43:56;;;;;;;59.67;32.47;;;;;;;3.59;100.00;93923.91;5071371;28;20197;-74
2022/01/06 03:46:26;;;;;;;56.07;29.77;;;;;;;3.60;100.00;93925.50;5066286;28;20229;-74
2022/01/06 03:48:54;;;;;;;52.40;27.70;;;;;;;3.59;100.00;93924.69;5065409;28;20237;-73
2022/01/06 03:51:23;;;;;;;48.03;26.47;;;;;;;3.36;100.00;93896.78;5071796;28;20208;-74
2022/01/06 03:53:52;;;;;;;53.63;27.80;;;;;;;3.57;100.00;93931.00;5071447;28;20232;-74
2022/01/06 03:56:20;;;;;;;50.93;29.30;;;;;;;3.53;100.00;93937.50;5071445;28;20309;-73
2022/01/06 03:58:49;;;;;;;49.90;27.33;;;;;;;3.51;100.00;93929.22;5071207;28;20202;-74
2022/01/06 04:01:18;;;;;;;58.53;32.83;;;;;;;3.43;100.00;93925.06;5070876;28;20205;-74
2022/01/06 04:03:48;;;;;;;54.10;29.53;;;;;;;3.47;100.00;93941.63;5071184;28;20237;-75
2022/01/06 04:06:17;;;;;;;57.10;32.33;;;;;;;3.47;100.00;93940.84;5070429;28;20201;-75
2022/01/06 04:08:45;;;;;;;57.73;30.30;;;;;;;3.46;100.00;93946.97;5070198;28;20641;-74
2022/01/06 04:11:14;;;;;;;60.83;29.93;;;;;;;3.44;100.00;93942.03;5070799;28;20213;-75
2022/01/06 04:13:42;;;;;;;63.30;31.80;;;;;;;3.46;100.00;93934.94;5070977;28;20704;-72
2022/01/06 04:16:14;;;;;;;58.60;30.77;;;;;;;3.41;100.00;93930.38;5076104;28;20205;-70
2022/01/06 04:18:42;;;;;;;56.13;30.37;;;;;;;3.42;100.00;93939.66;5070822;28;20324;-71
2022/01/06 04:21:13;;;;;;;56.63;27.30;;;;;;;3.32;100.00;93921.22;5070566;28;20267;-71
2022/01/06 04:23:42;;;;;;;56.70;26.97;;;;;;;3.36;100.00;93943.00;5069701;28;20216;-71
2022/01/06 04:26:09;;;;;;;46.90;27.10;;;;;;;3.28;100.00;93944.94;5071355;28;20201;-71
2022/01/06 04:28:38;;;;;;;50.13;27.13;;;;;;;3.34;100.00;93959.56;5070547;28;20584;-71
2022/01/06 04:31:08;;;;;;;49.27;27.23;;;;;;;3.38;100.00;93958.19;5070171;28;20324;-71
2022/01/06 04:33:37;;;;;;;53.07;27.60;;;;;;;3.38;100.00;93964.13;5069386;28;20312;-71
2022/01/06 04:36:07;;;;;;;59.43;29.23;;;;;;;3.35;100.00;93972.19;5070596;28;20700;-71
2022/01/06 04:38:36;;;;;;;51.60;28.87;;;;;;;3.39;100.00;93968.28;5063866;28;20619;-71
2022/01/06 04:41:04;;;;;;;55.03;29.93;;;;;;;3.33;100.00;93971.63;5070031;28;20201;-71
2022/01/06 04:43:32;;;;;;;53.77;28.17;;;;;;;3.29;100.00;93969.63;5069545;28;20661;-70
2022/01/06 04:46:00;;;;;;;47.50;25.20;;;;;;;3.34;100.00;93977.53;5070652;28;20267;-71
2022/01/06 04:48:27;;;;;;;53.30;25.80;;;;;;;3.39;100.00;93983.69;5069520;28;20263;-71
2022/01/06 04:50:54;;;;;;;47.80;26.20;;;;;;;3.43;100.00;93974.59;5069698;28;20233;-71
2022/01/06 04:53:23;;;;;;;56.80;30.00;;;;;;;3.47;100.00;93981.94;5069420;28;20224;-71
2022/01/06 04:55:54;;;;;;;63.97;32.20;;;;;;;3.46;100.00;93982.94;5069295;28;20197;-71
2022/01/06 04:58:21;;;;;;;64.43;33.10;;;;;;;3.43;100.00;93984.09;5057188;28;20312;-71
2022/01/06 05:00:49;;;;;;;72.20;33.77;;;;;;;3.38;100.00;93973.59;5066094;28;20628;-71
2022/01/06 05:03:17;;;;;;;64.07;31.50;;;;;;;3.39;100.00;93976.00;5073275;28;20201;-72
2022/01/06 05:05:45;;;;;;;48.67;25.57;;;;;;;3.26;100.00;93977.72;5068764;28;20660;-71
2022/01/06 05:08:13;;;;;;;43.83;23.83;;;;;;;3.16;100.00;93972.91;5069088;28;20211;-70
2022/01/06 05:10:40;;;;;;;53.57;24.50;;;;;;;3.22;100.00;93964.47;5069368;28;20197;-71
2022/01/06 05:13:10;;;;;;;49.87;26.03;;;;;;;3.16;100.00;93966.97;5069119;28;20802;-72
2022/01/06 05:15:38;;;;;;;69.00;35.70;;;;;;;3.19;100.00;93967.41;5070567;28;20323;-71
2022/01/06 05:18:05;;;;;;;60.80;32.67;;;;;;;3.22;100.00;93963.66;5071240;28;20287;-72
2022/01/06 05:20:37;;;;;;;59.83;30.80;;;;;;;3.28;100.00;93980.88;5068918;28;20640;-72
2022/01/06 05:23:05;;;;;;;68.77;36.47;;;;;;;3.33;100.00;93978.53;5069170;28;20241;-71
2022/01/06 05:25:33;;;;;;;66.43;36.10;;;;;;;3.30;100.00;93974.56;5068655;28;20201;-71
2022/01/06 05:28:00;;;;;;;75.60;34.93;;;;;;;3.29;100.00;93974.75;5068756;28;20308;-72
2022/01/06 05:30:32;;;;;;;54.67;30.47;;;;;;;3.21;100.00;93978.25;5068107;28;20298;-72
2022/01/06 05:33:00;;;;;;;69.03;34.10;;;;;;;3.30;100.00;93974.56;5067817;28;20223;-73
2022/01/06 05:35:28;;;;;;;71.60;35.20;;;;;;;3.30;100.00;93968.63;5068099;28;20243;-72
2022/01/06 05:37:56;;;;;;;65.20;37.30;;;;;;;3.25;100.00;93984.63;5067885;28;20241;-74
2022/01/06 05:40:25;;;;;;;61.87;34.30;;;;;;;3.30;100.00;93968.63;5068753;28;20194;-73
2022/01/06 05:42:53;;;;;;;62.30;32.70;;;;;;;3.25;100.00;93981.25;5068591;28;20201;-72
2022/01/06 05:45:21;;;;;;;60.73;32.67;;;;;;;3.22;100.00;93981.63;5068776;28;20579;-74
2022/01/06 05:47:51;;;;;;;61.17;33.10;;;;;;;3.26;100.00;93981.03;5068421;28;20205;-73
2022/01/06 05:50:18;;;;;;;51.97;28.67;;;;;;;3.34;100.00;93967.28;5067404;28;20205;-71
2022/01/06 05:52:46;;;;;;;60.77;32.17;;;;;;;3.34;100.00;93974.97;5068114;28;20618;-72
2022/01/06 05:55:14;;;;;;;61.37;32.27;;;;;;;3.41;100.00;93976.59;5068282;28;20228;-71
2022/01/06 05:57:42;;;;;;;76.17;34.97;;;;;;;3.42;100.00;93991.00;5068622;28;20657;-73
2022/01/06 06:00:11;;;;;;;60.80;34.13;;;;;;;3.43;100.00;93995.16;5067939;28;20233;-71
2022/01/06 06:02:39;;;;;;;81.43;40.27;;;;;;;3.50;100.00;93978.97;5067793;28;20671;-71
2022/01/06 06:05:08;;;;;;;89.07;43.40;;;;;;;3.51;100.00;93983.13;5067809;28;20201;-71
2022/01/06 06:07:36;;;;;;;72.40;38.90;;;;;;;3.52;100.00;93977.03;5068402;28;20198;-71
2022/01/06 06:10:05;;;;;;;76.30;38.87;;;;;;;3.52;100.00;93982.16;5067985;28;20205;-71
2022/01/06 06:12:33;;;;;;;92.83;42.87;;;;;;;3.53;100.00;93979.41;5067191;28;20588;-72
2022/01/06 06:15:00;;;;;;;77.17;40.43;;;;;;;3.48;100.00;93989.47;5067353;28;20296;-72
2022/01/06 06:17:29;;;;;;;76.60;42.00;;;;;;;3.54;100.00;93986.13;5071702;28;20216;-72
2022/01/06 06:19:56;;;;;;;81.13;44.87;;;;;;;3.44;100.00;93989.03;5068318;28;20262;-71
2022/01/06 06:22:25;;;;;;;88.90;49.00;;;;;;;3.43;100.00;93995.16;5068154;28;20205;-71
2022/01/06 06:24:56;;;;;;;89.17;48.97;;;;;;;3.41;100.00;93999.69;5067489;28;20293;-73
2022/01/06 06:27:24;;;;;;;95.00;53.00;;;;;;;3.35;100.00;94002.22;5067899;28;20758;-71
2022/01/06 06:29:52;;;;;;;114.13;60.70;;;;;;;3.33;100.00;93999.84;5067677;28;20209;-70
2022/01/06 06:32:20;;;;;;;106.50;53.80;;;;;;;3.38;100.00;93996.69;5061981;28;20288;-71
2022/01/06 06:34:48;;;;;;;117.27;59.73;;;;;;;3.48;100.00;93999.72;5067824;28;20264;-71
2022/01/06 06:37:16;;;;;;;106.90;58.73;;;;;;;3.51;100.00;94001.13;5067570;28;20209;-71
2022/01/06 06:39:45;;;;;;;95.83;51.47;;;;;;;3.56;100.00;93997.00;5061680;28;20210;-71
2022/01/06 06:42:13;;;;;;;68.23;37.70;;;;;;;3.33;100.00;93999.06;5062158;28;20205;-72
2022/01/06 06:44:40;;;;;;;71.73;38.60;;;;;;;3.22;100.00;93985.00;5067006;28;20205;-70
2022/01/06 06:47:07;;;;;;;80.80;47.00;;;;;;;3.39;100.00;94008.56;5064872;28;20205;-72
2022/01/06 06:49:36;;;;;;;97.60;51.33;;;;;;;3.45;100.00;94007.81;5067110;28;20316;-78
2022/01/06 06:52:07;;;;;;;89.83;49.17;;;;;;;3.49;100.00;94021.88;5070743;28;20201;-77
2022/01/06 06:54:35;;;;;;;72.93;38.33;;;;;;;3.51;100.00;94021.66;5068889;28;20228;-71
2022/01/06 06:57:05;;;;;;;62.93;35.73;;;;;;;3.33;100.00;93981.09;5070240;28;20208;-70
2022/01/06 06:59:33;;;;;;;74.10;36.07;;;;;;;3.46;100.00;93999.13;5067683;28;20216;-71
2022/01/06 07:02:01;;;;;;;67.27;35.60;;;;;;;3.45;100.00;94000.09;5070732;28;20209;-71
2022/01/06 07:04:29;;;;;;;92.63;45.97;;;;;;;3.54;100.00;94003.31;5071784;28;20201;-70
2022/01/06 07:06:57;;;;;;;94.80;43.97;;;;;;;3.56;100.00;94009.03;5071078;28;20314;-70
2022/01/06 07:09:25;;;;;;;92.53;48.00;;;;;;;3.69;100.00;94027.09;5071546;28;20278;-71
2022/01/06 07:11:53;;;;;;;93.67;47.80;;;;;;;3.78;100.00;94023.38;5071264;28;20205;-71
2022/01/06 07:14:22;;;;;;;90.93;49.07;;;;;;;3.81;100.00;94023.00;5069985;28;20779;-72
2022/01/06 07:16:50;;;;;;;89.20;48.53;;;;;;;3.90;100.00;94038.03;5074218;28;20688;-71
2022/01/06 07:19:19;;;;;;;94.10;48.23;;;;;;;3.94;100.00;94033.31;5069790;28;20275;-71
2022/01/06 07:21:46;;;;;;;88.70;46.77;;;;;;;4.06;100.00;94028.41;5070073;28;20213;-72
2022/01/06 07:24:14;;;;;;;100.20;50.77;;;;;;;4.10;100.00;94032.94;5069471;28;20209;-72
2022/01/06 07:26:42;;;;;;;98.70;49.90;;;;;;;4.12;100.00;94010.44;5070626;28;20209;-72
2022/01/06 07:29:10;;;;;;;88.63;47.17;;;;;;;4.19;100.00;94026.66;5070229;28;20793;-74
2022/01/06 07:31:39;;;;;;;89.87;47.33;;;;;;;4.23;100.00;94033.00;5070626;28;20593;-71
2022/01/06 07:34:07;;;;;;;103.20;50.33;;;;;;;4.26;100.00;94034.38;5070505;28;20225;-72
2022/01/06 07:36:35;;;;;;;97.83;48.40;;;;;;;4.28;100.00;94035.78;5070818;28;20288;-71
2022/01/06 07:39:04;;;;;;;83.57;45.30;;;;;;;4.38;100.00;94037.97;5071132;28;20193;-82
2022/01/06 07:41:33;;;;;;;83.13;43.83;;;;;;;4.36;100.00;94020.16;5072858;28;20296;-80
2022/01/06 07:44:02;;;;;;;80.33;41.43;;;;;;;4.52;100.00;94055.81;5064720;28;20202;-80
2022/01/06 07:46:30;;;;;;;79.27;41.33;;;;;;;4.54;100.00;94043.53;5071288;28;20298;-80
2022/01/06 07:48:59;;;;;;;86.57;40.43;;;;;;;4.56;100.00;94046.69;5073370;28;20284;-79
2022/01/06 07:51:30;;;;;;;72.47;36.93;;;;;;;4.57;100.00;94035.44;5070201;28;20206;-80
2022/01/06 07:53:58;;;;;;;65.97;36.20;;;;;;;4.67;100.00;94023.97;5060849;28;20193;-80
2022/01/06 07:56:29;;;;;;;78.53;37.23;;;;;;;4.82;100.00;94053.66;5068946;28;20213;-80
2022/01/06 07:59:00;;;;;;;64.30;34.43;;;;;;;4.90;100.00;94052.69;5059872;28;20236;-79
2022/01/06 08:01:29;;;;;;;63.13;32.47;;;;;;;4.95;100.00;94048.53;5067777;28;20201;-80
2022/01/06 08:03:58;;;;;;;55.97;33.57;;;;;;;5.09;100.00;94057.03;5068073;28;20255;-80
2022/01/06 08:06:26;;;;;;;68.90;33.00;;;;;;;5.07;100.00;94043.56;5071147;28;20302;-81
2022/01/06 08:08:54;;;;;;;58.13;31.93;;;;;;;5.21;100.00;94062.34;5071945;28;20689;-79
2022/01/06 08:11:30;;;;;;;53.00;30.50;;;;;;;5.41;100.00;94069.09;5072252;28;20210;-81
2022/01/06 08:13:58;;;;;;;56.80;28.93;;;;;;;5.28;100.00;94022.72;5065409;28;20202;-80
2022/01/06 08:16:27;;;;;;;61.03;28.97;;;;;;;5.71;100.00;94067.63;5067906;28;20243;-81
2022/01/06 08:19:03;;;;;;;50.63;28.03;;;;;;;5.70;100.00;94045.44;5064684;28;20230;-84
2022/01/06 08:21:31;;;;;;;56.40;30.47;;;;;;;5.74;100.00;94035.50;5058777;28;20666;-78
2022/01/06 08:24:02;;;;;;;54.03;29.47;;;;;;;5.74;100.00;94031.13;5062812;28;20211;-79
2022/01/06 08:26:33;;;;;;;50.27;27.70;;;;;;;6.09;100.00;94056.63;5079190;28;20253;-81
2022/01/06 08:29:04;;;;;;;49.40;27.70;;;;;;;6.32;100.00;94074.97;5057576;28;20223;-80
2022/01/06 08:31:32;;;;;;;46.43;26.27;;;;;;;6.09;100.00;94018.72;5064592;28;20236;-81
2022/01/06 08:34:04;;;;;;;53.10;26.30;;;;;;;6.27;100.00;94049.78;5071120;28;20679;-82
2022/01/06 08:36:33;;;;;;;43.77;25.10;;;;;;;6.31;100.00;94039.06;5063733;28;20620;-79
2022/01/06 08:39:02;;;;;;;42.40;24.33;;;;;;;6.61;100.00;94082.16;5059249;28;20219;-78
2022/01/06 08:41:34;;;;;;;51.20;23.77;;;;;;;6.61;100.00;94076.97;5069832;28;20215;-79
2022/01/06 08:44:02;;;;;;;40.27;20.80;;;;;;;6.71;100.00;94085.09;5067879;28;20198;-77
2022/01/06 08:46:29;;;;;;;35.83;20.17;;;;;;;6.66;100.00;94047.97;5065756;28;20402;-77
2022/01/06 08:48:57;;;;;;;47.90;18.97;;;;;;;6.92;99.93;94078.00;5061560;28;20201;-78
2022/01/06 08:51:26;;;;;;;35.53;19.53;;;;;;;7.04;98.92;94071.16;5065546;28;20208;-77
2022/01/06 08:53:54;;;;;;;33.57;19.47;;;;;;;7.18;97.42;94096.69;5067293;28;20199;-77
2022/01/06 08:56:22;;;;;;;31.53;18.70;;;;;;;7.21;96.13;94062.69;5064717;28;20224;-77
2022/01/06 08:58:49;;;;;;;32.60;19.50;;;;;;;7.31;96.00;94064.75;5069432;28;20292;-77
2022/01/06 09:01:17;;;;;;;33.50;18.03;;;;;;;7.35;95.06;94077.06;5069793;28;20227;-78
2022/01/06 09:03:45;;;;;;;37.63;19.30;;;;;;;7.39;95.26;94065.28;5068666;28;20205;-78
2022/01/06 09:06:12;;;;;;;36.47;18.83;;;;;;;7.58;94.32;94079.03;5069195;28;20208;-76
2022/01/06 09:08:43;;;;;;;30.87;18.77;;;;;;;7.64;93.89;94065.25;5069551;28;20209;-77
2022/01/06 09:11:10;;;;;;;31.37;18.57;;;;;;;7.72;93.06;94067.56;5069705;28;20241;-79
2022/01/06 09:13:38;;;;;;;34.80;18.90;;;;;;;7.80;92.00;94067.25;5069950;28;20205;-80
2022/01/06 09:16:08;;;;;;;33.97;20.07;;;;;;;7.89;91.63;94071.16;5064372;28;20661;-84
2022/01/06 09:18:35;;;;;;;35.97;21.30;;;;;;;7.98;91.15;94058.72;5066591;28;20254;-89
2022/01/06 09:21:04;;;;;;;43.80;19.60;;;;;;;8.17;90.04;94062.88;5070223;28;20193;-83
2022/01/06 09:23:33;;;;;;;35.70;20.43;;;;;;;8.27;89.20;94063.19;5070924;28;20205;-81
2022/01/06 09:26:02;;;;;;;36.47;21.10;;;;;;;8.27;88.29;94041.66;5062140;28;20198;-81
2022/01/06 09:28:30;;;;;;;43.17;22.10;;;;;;;8.33;88.08;94056.34;5072652;28;20207;-81
2022/01/06 09:30:59;;;;;;;39.90;22.33;;;;;;;8.35;87.40;94049.94;5070125;28;20272;-81
2022/01/06 09:33:27;;;;;;;37.00;21.87;;;;;;;8.48;86.66;94044.56;5070568;28;20201;-80
2022/01/06 09:35:55;;;;;;;42.90;23.63;;;;;;;8.61;86.28;94042.81;5070456;28;20312;-80
2022/01/06 09:38:23;;;;;;;43.67;23.20;;;;;;;8.69;84.99;94043.28;5070063;28;20197;-80
2022/01/06 09:40:51;;;;;;;44.20;23.60;;;;;;;8.74;85.08;94048.63;5070155;28;20270;-80
2022/01/06 09:43:25;;;;;;;42.03;22.07;;;;;;;8.86;84.85;94038.28;5069709;28;20665;-79
2022/01/06 09:45:54;;;;;;;38.23;22.40;;;;;;;8.93;84.21;94034.56;5074804;28;20219;-81
2022/01/06 09:48:21;;;;;;;47.63;22.87;;;;;;;9.14;82.01;94056.59;5078905;28;20254;-81
2022/01/06 09:50:49;;;;;;;40.17;22.30;;;;;;;9.19;82.14;94032.56;5065714;28;20251;-81
2022/01/06 09:53:21;;;;;;;42.40;22.93;;;;;;;9.21;81.06;94026.16;5070281;28;20209;-80
2022/01/06 09:55:49;;;;;;;37.53;22.43;;;;;;;9.32;80.70;94037.56;5070252;28;20263;-81
2022/01/06 09:58:25;;;;;;;35.30;22.37;;;;;;;9.41;80.16;94036.97;5072781;28;20212;-89
2022/01/06 10:00:55;;;;;;;44.37;24.00;;;;;;;9.60;79.89;94033.25;5078141;28;20204;-86
2022/01/06 10:03:33;;;;;;;41.53;22.90;;;;;;;10.44;76.34;94044.03;5072444;28;20229;-86
2022/01/06 10:06:12;;;;;;;42.73;21.90;;;;;;;12.55;66.02;94035.97;5073002;28;20201;-87
2022/01/06 10:08:41;;;;;;;44.40;22.80;;;;;;;14.84;57.64;94040.59;5071145;28;20246;-87
2022/01/06 10:11:13;;;;;;;40.77;21.93;;;;;;;16.56;51.33;94054.34;5071009;28;20233;-87
2022/01/06 10:13:45;;;;;;;44.57;22.43;;;;;;;18.41;45.84;94041.84;5067928;28;20314;-86
2022/01/06 10:16:18;;;;;;;40.53;21.60;;;;;;;20.13;41.64;94046.16;5064984;28;20664;-86
2022/01/06 10:19:00;;;;;;;36.67;21.00;;;;;;;21.72;38.48;94046.00;5071315;28;20208;-88
2022/01/06 10:21:34;;;;;;;43.27;21.70;;;;;;;22.94;34.92;94042.47;5071971;28;20197;-88
2022/01/06 10:24:12;;;;;;;37.92;19.98;;;;;;;23.63;33.86;94047.88;5070851;28;20449;-87
2022/01/06 10:26:52;;;;;;;42.17;22.20;;;;;;;24.57;32.29;94052.94;5072422;28;21059;-86
2022/01/06 10:29:23;;;;;;;37.97;21.00;;;;;;;25.18;30.42;94058.72;5072244;28;20208;-77
2022/01/06 10:31:51;;;;;;;32.53;21.35;;;;;;;25.45;30.35;94050.22;5075044;28;20225;-88
2022/01/06 10:34:18;;;;;;;41.03;21.70;;;;;;;25.93;29.13;94055.00;5075152;28;20197;-86
2022/01/06 10:36:49;;;;;;;35.22;20.88;;;;;;;25.74;29.30;94036.84;5074679;28;20320;-83
2022/01/06 10:39:17;;;;;;;30.85;19.45;;;;;;;26.81;27.68;94049.94;5073890;28;20293;-87
2022/01/06 10:41:45;;;;;;;24.95;15.52;;;;;;;27.25;26.46;94047.44;5067828;28;20205;-88
2022/01/06 10:44:14;;;;;;;27.52;16.00;;;;;;;28.20;25.06;94054.72;5075139;28;20695;-88
2022/01/06 10:46:45;;;;;;;29.77;15.50;;;;;;;28.10;25.12;94047.97;5086163;28;20208;-88
2022/01/06 10:49:15;;;;;;;19.70;13.65;;;;;;;28.17;24.50;94038.25;5095816;28;20193;-89
2022/01/06 10:51:44;;;;;;;23.23;14.10;;;;;;;28.01;25.34;94039.31;5083962;28;20209;-89
2022/01/06 10:54:16;;;;;;;24.08;9.35;;;;;;;27.95;24.11;94022.75;5074814;28;20837;-87
2022/01/06 10:56:56;;;;;;;13.80;7.35;;;;;;;27.62;24.33;94022.22;5074490;28;20225;-88
2022/01/06 10:59:26;;;;;;;13.55;6.30;;;;;;;27.69;23.59;94032.31;5073981;28;20197;-82
2022/01/06 11:01:57;;;;;;;12.98;6.85;;;;;;;27.88;23.62;94024.47;5073915;28;20205;-82
2022/01/06 11:04:27;;;;;;;9.45;5.75;;;;;;;28.38;23.24;94039.91;5065464;28;20213;-81
2022/01/06 11:06:55;;;;;;;12.00;5.45;;;;;;;28.67;22.49;94010.84;5069560;28;20284;-81
2022/01/06 11:09:22;;;;;;;9.25;5.47;;;;;;;29.47;22.14;94007.63;5073958;28;20210;-80
2022/01/06 11:14:38;;;;;;;9.77;4.93;;;;;;;30.23;21.16;94027.47;5048002;28;20205;-81
2022/01/06 11:17:08;;;;;;;9.30;5.72;;;;;;;29.79;21.15;94016.28;5075069;28;20337;-81
2022/01/06 11:19:36;;;;;;;10.27;5.25;;;;;;;29.61;21.09;94018.63;5068524;28;20198;-80
2022/01/06 11:22:06;;;;;;;10.52;4.13;;;;;;;27.92;21.81;94009.28;5064129;28;20689;-80
2022/01/06 11:24:34;;;;;;;8.00;3.35;;;;;;;27.37;22.55;94008.16;5072500;28;20209;-80
2022/01/06 11:27:06;;;;;;;10.65;4.50;;;;;;;26.81;23.32;94012.59;5072688;28;20232;-81
2022/01/06 11:29:36;;;;;;;16.38;6.30;;;;;;;26.31;24.25;94014.81;5066149;28;20592;-80
2022/01/06 11:32:19;;;;;;;6.63;3.72;;;;;;;25.49;24.57;94015.75;5072727;28;20567;-81
2022/01/06 11:34:47;;;;;;;14.18;4.75;;;;;;;25.77;25.15;93996.22;5070920;28;20738;-81
2022/01/06 11:37:16;;;;;;;11.80;5.78;;;;;;;26.47;23.94;94005.03;5066765;28;20270;-81